createdAt,value
2019-02-04T00:01:18.607Z,2.29
2019-02-04T00:03:25.762Z,2.23
2019-02-04T00:05:32.839Z,2.30
2019-02-04T00:07:40.018Z,2.21
2019-02-04T00:09:47.120Z,2.19
2019-02-04T00:11:54.218Z,2.19
2019-02-04T00:14:01.417Z,2.19
2019-02-04T00:16:09.129Z,2.18
2019-02-04T00:18:16.214Z,2.16
2019-02-04T00:20:23.242Z,2.13
2019-02-04T00:22:30.272Z,2.19
2019-02-04T00:24:37.396Z,2.15
2019-02-04T00:26:51.377Z,2.04
2019-02-04T00:28:53.361Z,2.19
2019-02-04T00:31:00.760Z,2.11
2019-02-04T00:33:07.871Z,2.15
2019-02-04T00:35:15.029Z,2.13
2019-02-04T00:37:22.256Z,2.08
2019-02-04T00:39:29.343Z,2.01
2019-02-04T00:41:36.408Z,1.95
2019-02-04T00:43:43.536Z,2.01
2019-02-04T00:45:51.283Z,2.00
2019-02-04T00:47:58.735Z,1.91
2019-02-04T00:50:06.243Z,2.01
2019-02-04T00:52:13.341Z,1.96
2019-02-04T00:54:20.427Z,1.94
2019-02-04T00:56:27.451Z,2.04
2019-02-04T00:58:34.532Z,2.08
2019-02-04T01:00:41.667Z,2.04
2019-02-04T01:02:48.738Z,2.00
2019-02-04T01:04:55.821Z,2.04
2019-02-04T01:07:02.862Z,1.96
2019-02-04T01:09:11.354Z,1.96
2019-02-04T01:11:18.385Z,1.95
2019-02-04T01:13:25.600Z,1.96
2019-02-04T01:15:32.732Z,1.95
2019-02-04T01:17:39.831Z,1.90
2019-02-04T01:19:46.876Z,1.79
2019-02-04T01:21:54.024Z,1.73
2019-02-04T01:24:01.204Z,1.79
2019-02-04T01:26:08.224Z,1.72
2019-02-04T01:28:15.621Z,1.79
2019-02-04T01:30:23.389Z,1.64
2019-02-04T01:32:31.411Z,1.64
2019-02-04T01:34:38.541Z,1.56
2019-02-04T01:36:45.659Z,1.62
2019-02-04T01:38:52.724Z,1.50
2019-02-04T01:40:59.819Z,1.42
2019-02-04T01:43:07.355Z,1.48
2019-02-04T01:45:14.378Z,1.47
2019-02-04T01:47:21.480Z,1.45
2019-02-04T01:49:28.635Z,1.35
2019-02-04T01:51:35.626Z,1.25
2019-02-04T01:53:42.847Z,1.35
2019-02-04T01:55:49.888Z,1.44
2019-02-04T01:57:58.444Z,1.30
2019-02-04T02:00:07.488Z,1.14
2019-02-04T02:02:14.651Z,1.20
2019-02-04T02:04:21.792Z,1.17
2019-02-04T02:06:29.113Z,1.21
2019-02-04T02:08:36.563Z,1.12
2019-02-04T02:10:43.779Z,1.17
2019-02-04T02:12:51.326Z,1.06
2019-02-04T02:14:58.434Z,1.14
2019-02-04T02:17:05.480Z,1.16
2019-02-04T02:19:12.511Z,1.05
2019-02-04T02:21:19.676Z,1.09
2019-02-04T02:23:26.828Z,0.96
2019-02-04T02:25:34.888Z,0.90
2019-02-04T02:27:42.582Z,1.01
2019-02-04T02:29:49.608Z,1.02
2019-02-04T02:31:56.679Z,0.94
2019-02-04T02:34:03.885Z,0.85
2019-02-04T02:36:11.347Z,0.93
2019-02-04T02:38:18.434Z,1.00
2019-02-04T02:40:35.983Z,1.09
2019-02-04T02:42:43.009Z,1.02
2019-02-04T02:44:50.104Z,0.94
2019-02-04T02:46:57.233Z,0.90
2019-02-04T02:49:04.206Z,0.80
2019-02-04T02:51:11.299Z,0.86
2019-02-04T02:53:18.292Z,0.80
2019-02-04T02:55:25.331Z,0.74
2019-02-04T02:57:32.807Z,0.79
2019-02-04T02:59:39.800Z,0.68
2019-02-04T03:01:46.796Z,0.79
2019-02-04T03:03:54.003Z,0.68
2019-02-04T03:06:01.084Z,0.77
2019-02-04T03:08:08.116Z,0.64
2019-02-04T03:10:22.139Z,0.59
2019-02-04T03:12:29.459Z,0.58
2019-02-04T03:14:36.528Z,0.78
2019-02-04T03:16:43.597Z,0.57
2019-02-04T03:18:50.657Z,0.58
2019-02-04T03:20:57.654Z,0.54
2019-02-04T03:23:04.770Z,0.60
2019-02-04T03:25:12.416Z,0.66
2019-02-04T03:27:19.911Z,0.61
2019-02-04T03:29:27.049Z,0.57
2019-02-04T03:31:34.135Z,0.54
2019-02-04T03:33:41.178Z,0.63
2019-02-04T03:35:48.284Z,0.66
2019-02-04T03:37:55.428Z,0.72
2019-02-04T03:40:02.399Z,0.85
2019-02-04T03:42:09.453Z,0.71
2019-02-04T03:44:16.454Z,0.75
2019-02-04T03:46:23.532Z,0.67
2019-02-04T03:48:30.669Z,0.67
2019-02-04T03:50:37.803Z,0.53
2019-02-04T03:52:44.932Z,0.60
2019-02-04T03:54:52.022Z,0.57
2019-02-04T03:56:59.098Z,0.66
2019-02-04T03:59:06.287Z,0.63
2019-02-04T04:01:13.418Z,0.65
2019-02-04T04:03:20.602Z,0.53
2019-02-04T04:05:27.664Z,0.53
2019-02-04T04:07:34.810Z,0.46
2019-02-04T04:09:42.305Z,0.46
2019-02-04T04:11:49.522Z,0.56
2019-02-04T04:13:56.712Z,0.45
2019-02-04T04:16:03.811Z,0.49
2019-02-04T04:18:15.861Z,0.51
2019-02-04T04:20:19.797Z,0.49
2019-02-04T04:22:26.984Z,0.39
2019-02-04T04:24:34.696Z,0.45
2019-02-04T04:26:41.760Z,0.38
2019-02-04T04:28:48.862Z,0.51
2019-02-04T04:30:55.942Z,0.31
2019-02-04T04:33:02.946Z,0.37
2019-02-04T04:35:10.069Z,0.41
2019-02-04T04:37:17.151Z,0.40
2019-02-04T04:39:24.643Z,0.39
2019-02-04T04:41:31.757Z,0.35
2019-02-04T04:43:38.851Z,0.33
2019-02-04T04:45:46.078Z,0.34
2019-02-04T04:47:53.139Z,0.28
2019-02-04T04:50:00.436Z,0.39
2019-02-04T04:52:07.664Z,0.39
2019-02-04T04:54:14.693Z,0.25
2019-02-04T04:56:21.749Z,0.29
2019-02-04T04:58:28.951Z,0.21
2019-02-04T05:00:36.188Z,0.24
2019-02-04T05:02:43.284Z,0.24
2019-02-04T05:04:50.298Z,0.23
2019-02-04T05:07:00.532Z,0.24
2019-02-04T05:09:08.608Z,0.27
2019-02-04T05:11:15.658Z,0.27
2019-02-04T05:13:22.810Z,0.20
2019-02-04T05:15:30.105Z,0.24
2019-02-04T05:17:37.170Z,0.20
2019-02-04T05:19:44.235Z,0.21
2019-02-04T05:21:51.642Z,0.22
2019-02-04T05:23:58.790Z,0.14
2019-02-04T05:26:06.062Z,0.16
2019-02-04T05:28:14.303Z,0.22
2019-02-04T05:30:23.232Z,0.14
2019-02-04T05:32:30.407Z,0.18
2019-02-04T05:34:38.561Z,0.16
2019-02-04T05:36:45.690Z,0.20
2019-02-04T05:38:52.872Z,0.21
2019-02-04T05:41:01.057Z,0.26
2019-02-04T05:43:08.260Z,0.28
2019-02-04T05:45:17.756Z,0.19
2019-02-04T05:47:24.889Z,0.14
2019-02-04T05:49:31.873Z,0.21
2019-02-04T05:51:39.451Z,0.19
2019-02-04T05:53:46.809Z,0.16
2019-02-04T05:55:53.863Z,0.22
2019-02-04T05:58:01.146Z,0.19
2019-02-04T06:00:10.600Z,0.20
2019-02-04T06:02:17.684Z,0.17
2019-02-04T06:04:25.035Z,0.14
2019-02-04T06:06:32.351Z,0.16
2019-02-04T06:08:39.566Z,0.17
2019-02-04T06:10:46.777Z,0.18
2019-02-04T06:12:54.101Z,0.13
2019-02-04T06:15:01.441Z,0.13
2019-02-04T06:17:08.826Z,0.21
2019-02-04T06:19:15.932Z,0.26
2019-02-04T06:21:23.797Z,0.25
2019-02-04T06:23:31.389Z,0.19
2019-02-04T06:25:39.096Z,0.24
2019-02-04T06:27:46.241Z,0.21
2019-02-04T06:29:53.359Z,0.13
2019-02-04T06:32:00.484Z,0.17
2019-02-04T06:34:07.662Z,0.22
2019-02-04T06:36:15.136Z,0.21
2019-02-04T06:38:22.462Z,0.29
2019-02-04T06:40:29.580Z,0.24
2019-02-04T06:42:36.986Z,0.19
2019-02-04T06:44:44.156Z,0.16
2019-02-04T06:46:51.387Z,0.23
2019-02-04T06:48:58.781Z,0.22
2019-02-04T06:51:06.187Z,0.24
2019-02-04T06:53:14.464Z,0.27
2019-02-04T06:55:31.240Z,0.20
2019-02-04T06:57:38.637Z,0.18
2019-02-04T06:59:45.947Z,0.25
2019-02-04T07:01:53.054Z,0.22
2019-02-04T07:04:00.222Z,0.20
2019-02-04T07:06:07.779Z,0.17
2019-02-04T07:08:14.853Z,0.21
2019-02-04T07:10:24.085Z,0.32
2019-02-04T07:12:31.515Z,0.27
2019-02-04T07:14:38.832Z,0.26
2019-02-04T07:16:46.390Z,0.21
2019-02-04T07:18:53.727Z,0.27
2019-02-04T07:21:01.065Z,0.31
2019-02-04T07:23:08.186Z,0.28
2019-02-04T07:25:15.331Z,0.28
2019-02-04T07:27:22.718Z,0.26
2019-02-04T07:29:30.269Z,0.29
2019-02-04T07:31:37.362Z,0.24
2019-02-04T07:33:44.566Z,0.23
2019-02-04T07:35:51.638Z,0.19
2019-02-04T07:37:58.783Z,0.23
2019-02-04T07:40:08.465Z,0.24
2019-02-04T07:42:15.902Z,0.27
2019-02-04T07:44:23.070Z,0.28
2019-02-04T07:46:30.295Z,0.32
2019-02-04T07:48:37.841Z,0.28
2019-02-04T07:50:44.966Z,0.22
2019-02-04T07:52:52.027Z,0.23
2019-02-04T07:54:59.312Z,0.28
2019-02-04T07:57:06.545Z,0.28
2019-02-04T07:59:14.343Z,0.36
2019-02-04T08:01:21.550Z,0.34
2019-02-04T08:03:29.185Z,0.37
2019-02-04T08:05:36.449Z,0.34
2019-02-04T08:07:44.400Z,0.35
2019-02-04T08:09:52.922Z,0.25
2019-02-04T08:12:00.366Z,0.36
2019-02-04T08:14:07.755Z,0.36
2019-02-04T08:16:14.957Z,0.26
2019-02-04T08:18:22.593Z,0.44
2019-02-04T08:20:29.798Z,0.34
2019-02-04T08:22:36.906Z,0.33
2019-02-04T08:24:44.017Z,0.42
2019-02-04T08:26:51.275Z,0.38
2019-02-04T08:28:58.939Z,0.48
2019-02-04T08:31:06.347Z,0.45
2019-02-04T08:33:13.507Z,0.43
2019-02-04T08:35:20.650Z,0.46
2019-02-04T08:37:28.959Z,0.45
2019-02-04T08:39:36.386Z,0.49
2019-02-04T08:41:43.682Z,0.50
2019-02-04T08:43:51.292Z,0.54
2019-02-04T08:45:59.147Z,0.52
2019-02-04T08:48:06.831Z,0.51
2019-02-04T08:50:16.869Z,0.55
2019-02-04T08:52:24.013Z,0.51
2019-02-04T08:54:31.208Z,0.55
2019-02-04T08:56:38.297Z,0.58
2019-02-04T08:58:45.388Z,0.59
2019-02-04T09:00:52.528Z,0.54
2019-02-04T09:02:59.945Z,0.55
2019-02-04T09:05:07.737Z,0.59
2019-02-04T09:07:14.976Z,0.59
2019-02-04T09:09:22.209Z,0.59
2019-02-04T09:11:29.579Z,0.60
2019-02-04T09:13:37.286Z,0.65
2019-02-04T09:15:44.816Z,0.69
2019-02-04T09:17:51.970Z,0.66
2019-02-04T09:20:09.743Z,0.70
2019-02-04T09:22:11.518Z,0.67
2019-02-04T09:24:18.685Z,0.64
2019-02-04T09:26:25.796Z,0.72
2019-02-04T09:28:32.978Z,0.71
2019-02-04T09:30:40.127Z,0.71
2019-02-04T09:32:47.270Z,0.72
2019-02-04T09:34:54.704Z,0.78
2019-02-04T09:37:01.857Z,0.74
2019-02-04T09:39:11.411Z,0.73
2019-02-04T09:41:18.801Z,0.78
2019-02-04T09:43:25.962Z,0.72
2019-02-04T09:45:33.092Z,0.69
2019-02-04T09:47:40.251Z,0.72
2019-02-04T09:49:47.438Z,0.72
2019-02-04T09:51:54.625Z,0.73
2019-02-04T09:54:01.712Z,0.74
2019-02-04T09:56:09.095Z,0.69
2019-02-04T09:58:16.529Z,0.73
2019-02-04T10:00:26.839Z,0.77
2019-02-04T10:02:34.002Z,0.79
2019-02-04T10:04:41.202Z,0.76
2019-02-04T10:06:48.260Z,0.82
2019-02-04T10:08:55.622Z,0.84
2019-02-04T10:11:02.767Z,0.77
2019-02-04T10:13:10.027Z,0.84
2019-02-04T10:15:21.295Z,0.85
2019-02-04T10:17:28.548Z,0.82
2019-02-04T10:19:35.793Z,0.84
2019-02-04T10:21:42.984Z,0.85
2019-02-04T10:23:50.362Z,0.84
2019-02-04T10:25:59.083Z,0.88
2019-02-04T10:28:09.000Z,0.86
2019-02-04T10:30:19.683Z,0.89
2019-02-04T10:32:27.670Z,0.85
2019-02-04T10:34:35.089Z,0.89
2019-02-04T10:36:42.921Z,0.85
2019-02-04T10:38:50.864Z,0.86
2019-02-04T10:40:58.328Z,0.84
2019-02-04T10:43:05.753Z,0.83
2019-02-04T10:45:13.439Z,0.83
2019-02-04T10:47:20.655Z,0.85
2019-02-04T10:49:27.902Z,0.81
2019-02-04T10:51:35.416Z,0.77
2019-02-04T10:53:42.838Z,0.82
2019-02-04T10:55:50.364Z,0.82
2019-02-04T10:57:57.681Z,0.84
2019-02-04T11:00:05.579Z,0.75
2019-02-04T11:02:12.893Z,0.82
2019-02-04T11:04:20.200Z,0.84
2019-02-04T11:06:27.540Z,0.79
2019-02-04T11:08:34.771Z,0.78
2019-02-04T11:10:42.259Z,0.75
2019-02-04T11:12:49.629Z,0.72
2019-02-04T11:14:56.963Z,0.83
2019-02-04T11:17:04.580Z,0.75
2019-02-04T11:19:12.044Z,0.73
2019-02-04T11:21:19.472Z,0.72
2019-02-04T11:23:29.067Z,0.71
2019-02-04T11:25:36.090Z,0.72
2019-02-04T11:27:43.389Z,0.68
2019-02-04T11:29:50.731Z,0.68
2019-02-04T11:31:59.187Z,0.69
2019-02-04T11:34:06.412Z,0.69
2019-02-04T11:36:13.665Z,0.71
2019-02-04T11:38:20.966Z,0.67
2019-02-04T11:40:35.177Z,0.68
2019-02-04T11:42:42.449Z,0.68
2019-02-04T11:44:49.918Z,0.66
2019-02-04T11:46:57.354Z,0.69
2019-02-04T11:49:04.865Z,0.75
2019-02-04T11:51:12.031Z,0.63
2019-02-04T11:53:19.268Z,0.66
2019-02-04T11:55:27.398Z,0.70
2019-02-04T11:57:35.441Z,0.67
2019-02-04T11:59:43.134Z,0.62
2019-02-04T12:01:50.772Z,0.64
2019-02-04T12:03:58.243Z,0.64
2019-02-04T12:06:05.515Z,0.66
2019-02-04T12:08:14.456Z,0.67
2019-02-04T12:10:53.371Z,0.65
2019-02-04T12:13:00.527Z,0.70
2019-02-04T12:15:12.369Z,0.70
2019-02-04T12:17:19.482Z,0.71
2019-02-04T12:19:26.750Z,0.68
2019-02-04T12:21:34.103Z,0.73
2019-02-04T12:23:41.651Z,0.69
2019-02-04T12:25:48.801Z,0.63
2019-02-04T12:27:56.227Z,0.65
2019-02-04T12:30:03.849Z,0.71
2019-02-04T12:32:11.735Z,0.67
2019-02-04T12:34:19.433Z,0.65
2019-02-04T12:36:27.065Z,0.62
2019-02-04T12:38:34.576Z,0.63
2019-02-04T12:40:42.010Z,0.68
2019-02-04T12:42:49.286Z,0.67
2019-02-04T12:44:57.061Z,0.65
2019-02-04T12:47:05.055Z,0.63
2019-02-04T12:49:12.275Z,0.66
2019-02-04T12:51:19.382Z,0.67
2019-02-04T12:53:26.529Z,0.67
2019-02-04T12:55:33.757Z,0.70
2019-02-04T12:57:40.865Z,0.67
2019-02-04T12:59:47.909Z,0.67
2019-02-04T13:01:55.110Z,0.67
2019-02-04T13:04:02.103Z,0.73
2019-02-04T13:06:11.381Z,0.72
2019-02-04T13:08:18.558Z,0.73
2019-02-04T13:10:25.816Z,0.72
2019-02-04T13:12:33.367Z,0.71
2019-02-04T13:14:40.744Z,0.70
2019-02-04T13:16:47.796Z,0.67
2019-02-04T13:18:54.937Z,0.66
2019-02-04T13:21:47.773Z,0.67
2019-02-04T13:23:56.639Z,0.66
2019-02-04T13:26:04.019Z,0.63
2019-02-04T13:28:42.764Z,0.67
2019-02-04T13:30:57.919Z,0.59
2019-02-04T13:33:04.937Z,0.68
2019-02-04T13:35:12.830Z,0.60
2019-02-04T13:37:20.173Z,0.56
2019-02-04T13:39:27.476Z,0.64
2019-02-04T13:41:34.897Z,0.63
2019-02-04T13:43:43.358Z,0.60
2019-02-04T13:45:50.677Z,0.66
2019-02-04T13:47:58.060Z,0.66
2019-02-04T13:50:06.135Z,0.67
2019-02-04T13:52:15.365Z,0.72
2019-02-04T13:54:22.384Z,0.63
2019-02-04T13:56:29.542Z,0.64
2019-02-04T13:58:36.934Z,0.71
2019-02-04T14:00:44.026Z,0.59
2019-02-04T14:02:58.975Z,0.59
2019-02-04T14:04:59.892Z,0.60
2019-02-04T14:07:07.066Z,0.57
2019-02-04T14:09:19.985Z,0.55
2019-02-04T14:11:27.183Z,0.61
2019-02-04T14:13:34.345Z,0.55
2019-02-04T14:15:42.503Z,0.55
2019-02-04T14:17:49.553Z,0.55
2019-02-04T14:19:56.670Z,0.58
2019-02-04T14:22:09.375Z,0.63
2019-02-04T14:24:12.625Z,0.54
2019-02-04T14:26:19.814Z,0.54
2019-02-04T14:28:26.986Z,0.63
2019-02-04T14:30:36.479Z,0.53
2019-02-04T14:32:43.673Z,0.53
2019-02-04T14:34:51.413Z,0.58
2019-02-04T14:36:58.640Z,0.59
2019-02-04T14:39:07.381Z,0.55
2019-02-04T14:41:14.635Z,0.61
2019-02-04T14:43:41.292Z,0.58
2019-02-04T14:46:33.796Z,0.52
2019-02-04T14:49:52.694Z,0.57
2019-02-04T14:52:28.382Z,0.54
2019-02-04T14:55:51.209Z,0.55
2019-02-04T14:58:37.615Z,0.49
2019-02-04T15:01:39.681Z,0.56
2019-02-04T15:04:45.051Z,0.61
2019-02-04T15:08:15.794Z,0.47
2019-02-04T15:11:30.219Z,0.50
2019-02-04T15:14:33.039Z,0.45
2019-02-04T15:17:10.874Z,0.45
2019-02-04T15:20:10.785Z,0.55
2019-02-04T15:23:00.008Z,0.47
2019-02-04T15:26:31.402Z,0.35
2019-02-04T15:29:29.327Z,0.38
2019-02-04T15:32:29.609Z,0.42
2019-02-04T15:35:37.144Z,0.36
2019-02-04T15:38:46.534Z,0.43
2019-02-04T15:41:27.956Z,0.43
2019-02-04T15:44:37.256Z,0.51
2019-02-04T15:47:11.102Z,0.49
2019-02-04T15:50:15.701Z,0.44
2019-02-04T15:52:23.239Z,0.33
2019-02-04T15:54:30.861Z,0.48
2019-02-04T15:56:38.283Z,0.39
2019-02-04T15:58:45.564Z,0.29
2019-02-04T16:00:52.680Z,0.32
2019-02-04T16:02:59.740Z,0.49
2019-02-04T16:05:08.198Z,0.37
2019-02-04T16:07:16.216Z,0.38
2019-02-04T16:09:23.523Z,0.45
2019-02-04T16:11:30.806Z,0.35
2019-02-04T16:13:37.886Z,0.36
2019-02-04T16:15:45.072Z,0.30
2019-02-04T16:17:52.332Z,0.33
2019-02-04T16:19:59.800Z,0.34
2019-02-04T16:22:07.039Z,0.36
2019-02-04T16:24:14.339Z,0.30
2019-02-04T16:26:21.690Z,0.41
2019-02-04T16:28:29.232Z,0.26
2019-02-04T16:30:36.462Z,0.33
2019-02-04T16:32:44.190Z,0.34
2019-02-04T16:34:51.896Z,0.17
2019-02-04T16:36:59.179Z,0.25
2019-02-04T16:39:10.986Z,0.28
2019-02-04T16:41:18.187Z,0.31
2019-02-04T16:43:25.499Z,0.22
2019-02-04T16:45:32.615Z,0.13
2019-02-04T16:47:39.857Z,0.09
2019-02-04T16:49:47.386Z,0.15
2019-02-04T16:51:54.866Z,0.12
2019-02-04T16:54:03.092Z,0.13
2019-02-04T16:56:11.715Z,0.17
2019-02-04T16:58:19.816Z,0.22
2019-02-04T17:00:32.093Z,0.30
2019-02-04T17:02:39.425Z,0.32
2019-02-04T17:04:46.953Z,0.15
2019-02-04T17:06:54.145Z,0.26
2019-02-04T17:09:02.321Z,0.27
2019-02-04T17:11:09.765Z,0.27
2019-02-04T17:13:16.999Z,0.21
2019-02-04T17:15:25.699Z,0.18
2019-02-04T17:17:33.267Z,0.23
2019-02-04T17:19:40.857Z,0.10
2019-02-04T17:21:48.219Z,0.23
2019-02-04T17:23:55.367Z,0.16
2019-02-04T17:26:02.606Z,0.14
2019-02-04T17:28:09.864Z,0.19
2019-02-04T17:30:20.458Z,0.17
2019-02-04T17:32:27.776Z,0.19
2019-02-04T17:34:35.470Z,0.08
2019-02-04T17:36:42.886Z,0.16
2019-02-04T17:38:50.018Z,0.14
2019-02-04T17:40:57.291Z,0.15
2019-02-04T17:43:05.121Z,0.03
2019-02-04T17:45:13.634Z,0.08
2019-02-04T17:47:20.807Z,0.15
2019-02-04T17:49:28.223Z,0.06
2019-02-04T17:51:35.763Z,0.01
2019-02-04T17:53:42.949Z,0.04
2019-02-04T17:55:50.121Z,0.13
2019-02-04T17:57:57.209Z,0.01
2019-02-04T18:00:06.064Z,0.05
2019-02-04T18:02:13.677Z,0.12
2019-02-04T18:04:20.795Z,0.09
2019-02-04T18:06:27.858Z,0.06
2019-02-04T18:08:35.036Z,0.16
2019-02-04T18:10:42.200Z,0.24
2019-02-04T18:12:49.496Z,0.06
2019-02-04T18:14:56.678Z,0.14
2019-02-04T18:17:04.360Z,0.17
2019-02-04T18:19:11.676Z,0.08
2019-02-04T18:21:18.923Z,0.03
2019-02-04T18:23:26.222Z,-0.09
2019-02-04T18:25:33.792Z,-0.11
2019-02-04T18:27:41.044Z,-0.08
2019-02-04T18:29:48.342Z,-0.06
2019-02-04T18:31:55.952Z,-0.03
2019-02-04T18:34:03.109Z,-0.10
2019-02-04T18:36:10.414Z,-0.12
2019-02-04T18:38:17.559Z,-0.11
2019-02-04T18:40:25.224Z,-0.06
2019-02-04T18:42:32.973Z,0.09
2019-02-04T18:44:40.137Z,0.09
2019-02-04T18:46:47.379Z,0.06
2019-02-04T18:48:54.658Z,0.12
2019-02-04T18:51:01.916Z,0.03
2019-02-04T18:53:09.296Z,0.10
2019-02-04T18:55:20.001Z,-0.09
2019-02-04T18:57:27.264Z,0.05
2019-02-04T18:59:34.545Z,0.08
2019-02-04T19:01:42.016Z,-0.09
2019-02-04T19:03:50.465Z,-0.21
2019-02-04T19:05:57.903Z,-0.15
2019-02-04T19:08:05.184Z,-0.24
2019-02-04T19:10:14.649Z,-0.07
2019-02-04T19:12:21.899Z,-0.12
2019-02-04T19:14:29.034Z,-0.18
2019-02-04T19:16:36.213Z,-0.11
2019-02-04T19:18:43.410Z,-0.20
2019-02-04T19:20:50.739Z,-0.16
2019-02-04T19:22:58.950Z,-0.03
2019-02-04T19:25:07.578Z,-0.18
2019-02-04T19:27:14.783Z,-0.22
2019-02-04T19:29:22.265Z,-0.19
2019-02-04T19:31:32.064Z,-0.19
2019-02-04T19:33:39.763Z,-0.15
2019-02-04T19:35:47.147Z,-0.26
2019-02-04T19:37:54.362Z,-0.28
2019-02-04T19:40:01.610Z,-0.28
2019-02-04T19:42:09.329Z,-0.29
2019-02-04T19:44:16.768Z,-0.28
2019-02-04T19:46:25.829Z,-0.22
2019-02-04T19:48:33.161Z,-0.30
2019-02-04T19:50:40.507Z,-0.28
2019-02-04T19:52:47.760Z,-0.22
2019-02-04T19:54:55.037Z,-0.18
2019-02-04T19:57:02.545Z,-0.15
2019-02-04T19:59:10.042Z,0.01
2019-02-04T20:01:18.357Z,-0.06
2019-02-04T20:03:25.816Z,-0.16
2019-02-04T20:05:33.492Z,-0.21
2019-02-04T20:07:41.117Z,-0.35
2019-02-04T20:09:49.019Z,-0.37
2019-02-04T20:11:57.036Z,-0.12
2019-02-04T20:14:06.544Z,0.09
2019-02-04T20:16:17.551Z,-0.11
2019-02-04T20:18:25.378Z,-0.22
2019-02-04T20:20:32.906Z,-0.17
2019-02-04T20:22:40.605Z,-0.19
2019-02-04T20:24:48.254Z,-0.19
2019-02-04T20:26:55.654Z,-0.27
2019-02-04T20:29:03.079Z,-0.31
2019-02-04T20:31:11.001Z,-0.34
2019-02-04T20:33:18.267Z,-0.25
2019-02-04T20:35:25.603Z,-0.16
2019-02-04T20:37:33.522Z,-0.29
2019-02-04T20:39:41.364Z,-0.39
2019-02-04T20:41:48.940Z,-0.44
2019-02-04T20:43:56.844Z,-0.45
2019-02-04T20:46:04.168Z,-0.33
2019-02-04T20:48:14.638Z,-0.43
2019-02-04T20:50:28.287Z,-0.39
2019-02-04T20:52:35.592Z,-0.42
2019-02-04T20:54:44.975Z,-0.40
2019-02-04T20:56:52.066Z,-0.39
2019-02-04T20:58:59.407Z,-0.28
2019-02-04T21:01:07.548Z,-0.16
2019-02-04T21:03:14.852Z,-0.14
2019-02-04T21:05:22.424Z,-0.37
2019-02-04T21:07:30.268Z,-0.42
2019-02-04T21:09:37.573Z,-0.46
2019-02-04T21:11:44.861Z,-0.34
2019-02-04T21:13:52.236Z,-0.35
2019-02-04T21:15:59.584Z,-0.30
2019-02-04T21:18:06.933Z,-0.35
2019-02-04T21:20:17.809Z,-0.31
2019-02-04T21:22:30.539Z,-0.50
2019-02-04T21:24:37.662Z,-0.47
2019-02-04T21:27:02.833Z,-0.40
2019-02-04T21:29:09.981Z,-0.22
2019-02-04T21:31:17.145Z,-0.23
2019-02-04T21:33:24.377Z,-0.14
2019-02-04T21:35:31.965Z,-0.37
2019-02-04T21:37:39.310Z,-0.44
2019-02-04T21:39:46.488Z,-0.34
2019-02-04T21:41:53.782Z,-0.44
2019-02-04T21:44:00.867Z,-0.43
2019-02-04T21:46:08.206Z,-0.34
2019-02-04T21:48:15.532Z,-0.31
2019-02-04T21:50:24.752Z,-0.39
2019-02-04T21:52:32.283Z,-0.27
2019-02-04T21:54:39.395Z,-0.26
2019-02-04T21:56:46.666Z,-0.46
2019-02-04T21:58:54.139Z,-0.39
2019-02-04T22:01:01.639Z,-0.38
2019-02-04T22:03:09.110Z,-0.42
2019-02-04T22:05:17.938Z,-0.36
2019-02-04T22:07:25.112Z,-0.34
2019-02-04T22:09:32.451Z,-0.39
2019-02-04T22:11:40.284Z,-0.53
2019-02-04T22:13:47.719Z,-0.52
2019-02-04T22:15:54.835Z,-0.41
2019-02-04T22:18:02.109Z,-0.39
2019-02-04T22:20:10.324Z,-0.48
2019-02-04T22:22:17.617Z,-0.60
2019-02-04T22:24:24.933Z,-0.51
2019-02-04T22:26:32.189Z,-0.49
2019-02-04T22:28:39.549Z,-0.34
2019-02-04T22:30:46.669Z,-0.53
2019-02-04T22:32:53.926Z,-0.57
2019-02-04T22:35:01.062Z,-0.52
2019-02-04T22:37:08.203Z,-0.54
2019-02-04T22:39:15.489Z,-0.59
2019-02-04T22:41:22.727Z,-0.61
2019-02-04T22:43:29.827Z,-0.64
2019-02-04T22:45:36.958Z,-0.58
2019-02-04T22:47:44.295Z,-0.70
2019-02-04T22:49:51.467Z,-0.58
2019-02-04T22:51:58.637Z,-0.70
2019-02-04T22:54:05.784Z,-0.56
2019-02-04T22:56:13.040Z,-0.66
2019-02-04T22:58:20.657Z,-0.71
2019-02-04T23:00:50.260Z,-0.71
2019-02-04T23:02:57.620Z,-0.71
2019-02-04T23:05:04.989Z,-0.74
2019-02-04T23:07:12.465Z,-0.74
2019-02-04T23:09:19.554Z,-0.75
2019-02-04T23:11:26.685Z,-0.70
2019-02-04T23:13:34.286Z,-0.76
2019-02-04T23:15:41.713Z,-0.77
2019-02-04T23:17:49.586Z,-0.74
2019-02-04T23:19:57.114Z,-0.75
2019-02-04T23:22:04.628Z,-0.61
2019-02-04T23:24:12.137Z,-0.72
2019-02-04T23:26:19.211Z,-0.75
2019-02-04T23:28:26.322Z,-0.59
2019-02-04T23:30:33.707Z,-0.72
2019-02-04T23:32:41.262Z,-0.79
2019-02-04T23:34:48.371Z,-0.70
2019-02-04T23:36:55.897Z,-0.69
2019-02-04T23:39:04.152Z,-0.77
2019-02-04T23:41:11.276Z,-0.69
2019-02-04T23:43:18.423Z,-0.58
2019-02-04T23:45:25.661Z,-0.76
2019-02-04T23:47:32.747Z,-0.74
2019-02-04T23:49:40.040Z,-0.79
2019-02-04T23:51:47.530Z,-0.69
2019-02-04T23:53:54.925Z,-0.80
2019-02-04T23:56:02.043Z,-0.78
2019-02-04T23:58:09.095Z,-0.82
